Terminal Aerodrome Forecast
Issued by NWS Binghamton, NY

Home | Current Version | Previous Version | Text Only | Print | Product List | Glossary On
Versions: 1 2 3 4 5 6 7 8 9 10 11 12 13 14 15 16 17 18 19 20 21
580
FTUS41 KBGM 052331
TAFSYR
TAF
KSYR 052331Z 0600/0624 28011KT P6SM BKN040
     FM060400 22005KT P6SM BKN040
     FM061500 24010KT P6SM BKN040=

USA.gov is the U.S. government's official web portal to all federal, state and local government web resources and services.